Kathryn, ND (58049)

2:44 AM CDT on July 26, 2016 (GMT -0500)
Jamestown Municipal | | Change Station

Elev 1499 ft 46.93 °N, 98.67 °W | Updated 48 minutes ago

Clear
Clear
69 °F
Feels Like 69 °F
N
0
Wind Variable Wind from North

Today
High -- | Low -- °F
--% Chance of Precip.
Yesterday
High -- | Low -- °F
Precip. -- in
Pressure 29.90 in
Visibility 10.0 miles
Clouds Clear
Dew Point 68 °F
Humidity 96%
Rainfall 0.00 in
Snow Depth Not available.
6:05 AM 9:10 PM
Waning Gibbous, 57% visible
METAR KJMS 260656Z AUTO 00000KT 10SM CLR 21/20 A2993 RMK AO2 SLP125 T02060200
Pressure 29.90 in
Visibility 10.0 miles
Clouds Clear
Dew Point 68 °F
Humidity 96%
Rainfall 0.00 in
Snow Depth Not available.
6:05 AM 9:10 PM
Waning Gibbous, 57% visible
METAR KJMS 260656Z AUTO 00000KT 10SM CLR 21/20 A2993 RMK AO2 SLP125 T02060200

10-Day Weather Forecast

Almanac

Astronomy

Jul. 26, 2016 Rise Set
Actual Time
Civil Twilight
Nautical Twilight
Astronomical Twilight
Moon
Length of Visible Light
Length of Day
Tomorrow will be .
, % of the Moon is Illuminated

Today's Extremes

State Highs State Lows

Community

WunderPhotos

Upload Photos

1,927,551 photos uploaded!

WunderBlog® & News

Nearby

Air Quality

  Air Quality AQ Index Pollutant
Not available.

Snow Depth

Station Depth Elevation

Earthquake Activity

City Distance Mag. Time & Date
Minimum magnitude displayed is 2.5.

Coastal Water Temperatures

Place Temperature

Stations

Nearby Weather Stations

Station Location Temp. Windchill Dew Point Humidity Wind Precip. Elev Updated Type
                   

Watches & Warnings

There are currently no watches in effect.